sensor_id;sensor_type;location;lat;lon;timestamp;P1;durP1;ratioP1;P2;durP2;ratioP2
1154;SDS011;566;48.414;9.118;2022-10-16T00:01:57;3.22;;;0.77;;
1154;SDS011;566;48.414;9.118;2022-10-16T00:04:23;2.47;;;0.85;;
1154;SDS011;566;48.414;9.118;2022-10-16T00:06:49;2.95;;;0.85;;
1154;SDS011;566;48.414;9.118;2022-10-16T00:09:15;3.13;;;0.80;;
1154;SDS011;566;48.414;9.118;2022-10-16T00:11:40;3.35;;;0.90;;
1154;SDS011;566;48.414;9.118;2022-10-16T00:14:08;2.53;;;0.88;;
1154;SDS011;566;48.414;9.118;2022-10-16T00:16:36;3.50;;;1.20;;
1154;SDS011;566;48.414;9.118;2022-10-16T00:19:02;1.38;;;0.80;;
1154;SDS011;566;48.414;9.118;2022-10-16T00:21:29;2.00;;;0.90;;
1154;SDS011;566;48.414;9.118;2022-10-16T00:23:59;2.25;;;1.00;;
1154;SDS011;566;48.414;9.118;2022-10-16T00:26:28;2.78;;;0.85;;
1154;SDS011;566;48.414;9.118;2022-10-16T00:28:57;2.50;;;0.80;;
1154;SDS011;566;48.414;9.118;2022-10-16T00:31:23;4.45;;;0.80;;
1154;SDS011;566;48.414;9.118;2022-10-16T00:33:49;3.05;;;0.80;;
1154;SDS011;566;48.414;9.118;2022-10-16T00:36:17;3.95;;;1.10;;
1154;SDS011;566;48.414;9.118;2022-10-16T00:38:44;3.67;;;1.20;;
1154;SDS011;566;48.414;9.118;2022-10-16T00:41:14;2.85;;;1.00;;
1154;SDS011;566;48.414;9.118;2022-10-16T00:51:34;2.75;;;0.90;;
1154;SDS011;566;48.414;9.118;2022-10-16T00:54:09;7.47;;;1.20;;
1154;SDS011;566;48.414;9.118;2022-10-16T00:56:38;2.40;;;0.80;;
1154;SDS011;566;48.414;9.118;2022-10-16T00:59:05;2.47;;;0.90;;
1154;SDS011;566;48.414;9.118;2022-10-16T01:01:35;1.95;;;0.90;;
1154;SDS011;566;48.414;9.118;2022-10-16T01:04:01;3.75;;;1.02;;
1154;SDS011;566;48.414;9.118;2022-10-16T01:09:25;2.75;;;1.02;;
1154;SDS011;566;48.414;9.118;2022-10-16T01:12:21;4.15;;;1.00;;
1154;SDS011;566;48.414;9.118;2022-10-16T01:15:01;2.10;;;1.00;;
1154;SDS011;566;48.414;9.118;2022-10-16T01:17:49;3.25;;;0.90;;
1154;SDS011;566;48.414;9.118;2022-10-16T01:20:32;2.08;;;0.82;;
1154;SDS011;566;48.414;9.118;2022-10-16T01:23:08;1.90;;;0.85;;
1154;SDS011;566;48.414;9.118;2022-10-16T01:31:40;2.80;;;0.88;;
1154;SDS011;566;48.414;9.118;2022-10-16T01:34:13;2.50;;;0.98;;
1154;SDS011;566;48.414;9.118;2022-10-16T01:36:47;2.33;;;0.90;;
1154;SDS011;566;48.414;9.118;2022-10-16T01:41:48;4.90;;;1.15;;
1154;SDS011;566;48.414;9.118;2022-10-16T01:44:21;2.85;;;1.00;;
1154;SDS011;566;48.414;9.118;2022-10-16T01:49:17;7.63;;;1.52;;
1154;SDS011;566;48.414;9.118;2022-10-16T01:51:44;3.53;;;1.10;;
1154;SDS011;566;48.414;9.118;2022-10-16T01:54:13;4.97;;;1.10;;
1154;SDS011;566;48.414;9.118;2022-10-16T01:56:41;3.75;;;0.98;;
1154;SDS011;566;48.414;9.118;2022-10-16T01:59:12;3.20;;;1.17;;
1154;SDS011;566;48.414;9.118;2022-10-16T02:01:45;5.22;;;1.00;;
1154;SDS011;566;48.414;9.118;2022-10-16T02:04:16;2.30;;;1.00;;
1154;SDS011;566;48.414;9.118;2022-10-16T02:06:47;3.08;;;1.00;;
1154;SDS011;566;48.414;9.118;2022-10-16T02:09:12;3.15;;;1.05;;
1154;SDS011;566;48.414;9.118;2022-10-16T02:11:40;1.83;;;0.90;;
1154;SDS011;566;48.414;9.118;2022-10-16T02:14:06;4.32;;;1.10;;
1154;SDS011;566;48.414;9.118;2022-10-16T02:16:33;2.78;;;1.00;;
1154;SDS011;566;48.414;9.118;2022-10-16T02:19:00;4.18;;;1.15;;
1154;SDS011;566;48.414;9.118;2022-10-16T02:21:28;3.92;;;0.98;;
1154;SDS011;566;48.414;9.118;2022-10-16T02:24:09;4.90;;;1.15;;
1154;SDS011;566;48.414;9.118;2022-10-16T02:26:51;4.20;;;1.10;;
1154;SDS011;566;48.414;9.118;2022-10-16T02:29:24;2.78;;;1.20;;
1154;SDS011;566;48.414;9.118;2022-10-16T02:31:53;3.78;;;1.20;;
1154;SDS011;566;48.414;9.118;2022-10-16T02:34:23;6.57;;;1.20;;
1154;SDS011;566;48.414;9.118;2022-10-16T02:36:51;4.68;;;1.42;;
1154;SDS011;566;48.414;9.118;2022-10-16T02:39:19;4.00;;;1.15;;
1154;SDS011;566;48.414;9.118;2022-10-16T02:41:45;3.60;;;1.10;;
1154;SDS011;566;48.414;9.118;2022-10-16T02:44:11;4.72;;;1.10;;
1154;SDS011;566;48.414;9.118;2022-10-16T02:46:36;3.38;;;1.33;;
1154;SDS011;566;48.414;9.118;2022-10-16T02:49:02;3.67;;;1.00;;
1154;SDS011;566;48.414;9.118;2022-10-16T02:51:28;4.68;;;1.83;;
1154;SDS011;566;48.414;9.118;2022-10-16T02:53:53;6.65;;;1.15;;
1154;SDS011;566;48.414;9.118;2022-10-16T02:56:19;4.05;;;1.10;;
1154;SDS011;566;48.414;9.118;2022-10-16T02:58:45;3.08;;;1.20;;
1154;SDS011;566;48.414;9.118;2022-10-16T03:01:10;4.25;;;1.00;;
1154;SDS011;566;48.414;9.118;2022-10-16T03:03:37;4.82;;;1.02;;
1154;SDS011;566;48.414;9.118;2022-10-16T03:06:03;2.75;;;1.20;;
1154;SDS011;566;48.414;9.118;2022-10-16T03:08:29;1.95;;;0.88;;
1154;SDS011;566;48.414;9.118;2022-10-16T03:10:55;2.58;;;1.13;;
1154;SDS011;566;48.414;9.118;2022-10-16T03:13:20;3.42;;;1.30;;
1154;SDS011;566;48.414;9.118;2022-10-16T03:15:46;2.28;;;1.05;;
1154;SDS011;566;48.414;9.118;2022-10-16T03:18:12;4.13;;;1.00;;
1154;SDS011;566;48.414;9.118;2022-10-16T03:20:38;2.25;;;1.30;;
1154;SDS011;566;48.414;9.118;2022-10-16T03:23:04;4.28;;;1.25;;
1154;SDS011;566;48.414;9.118;2022-10-16T03:25:29;3.33;;;1.27;;
1154;SDS011;566;48.414;9.118;2022-10-16T03:27:55;3.63;;;1.40;;
1154;SDS011;566;48.414;9.118;2022-10-16T03:30:20;3.92;;;1.10;;
1154;SDS011;566;48.414;9.118;2022-10-16T03:32:46;2.50;;;1.10;;
1154;SDS011;566;48.414;9.118;2022-10-16T03:35:12;2.95;;;1.20;;
1154;SDS011;566;48.414;9.118;2022-10-16T03:37:38;4.07;;;1.20;;
1154;SDS011;566;48.414;9.118;2022-10-16T03:40:03;2.85;;;1.20;;
1154;SDS011;566;48.414;9.118;2022-10-16T03:42:39;3.85;;;1.20;;
1154;SDS011;566;48.414;9.118;2022-10-16T03:45:04;3.58;;;1.13;;
1154;SDS011;566;48.414;9.118;2022-10-16T03:47:31;3.33;;;1.30;;
1154;SDS011;566;48.414;9.118;2022-10-16T03:49:58;6.50;;;1.20;;
1154;SDS011;566;48.414;9.118;2022-10-16T03:52:24;9.52;;;1.90;;
1154;SDS011;566;48.414;9.118;2022-10-16T03:54:50;3.97;;;1.13;;
1154;SDS011;566;48.414;9.118;2022-10-16T03:57:15;3.80;;;1.20;;
1154;SDS011;566;48.414;9.118;2022-10-16T03:59:41;4.80;;;1.35;;
1154;SDS011;566;48.414;9.118;2022-10-16T04:02:07;5.60;;;1.27;;
1154;SDS011;566;48.414;9.118;2022-10-16T04:04:32;3.40;;;1.30;;
1154;SDS011;566;48.414;9.118;2022-10-16T04:06:58;4.63;;;1.40;;
1154;SDS011;566;48.414;9.118;2022-10-16T04:09:23;7.80;;;1.63;;
1154;SDS011;566;48.414;9.118;2022-10-16T04:11:49;2.20;;;1.00;;
1154;SDS011;566;48.414;9.118;2022-10-16T04:14:15;3.10;;;1.30;;
1154;SDS011;566;48.414;9.118;2022-10-16T04:16:41;3.45;;;1.30;;
1154;SDS011;566;48.414;9.118;2022-10-16T04:19:06;3.10;;;1.40;;
1154;SDS011;566;48.414;9.118;2022-10-16T04:21:32;3.28;;;1.13;;
1154;SDS011;566;48.414;9.118;2022-10-16T04:23:58;2.78;;;1.17;;
1154;SDS011;566;48.414;9.118;2022-10-16T04:26:23;1.75;;;1.00;;
1154;SDS011;566;48.414;9.118;2022-10-16T04:28:49;3.55;;;1.40;;
1154;SDS011;566;48.414;9.118;2022-10-16T04:31:15;2.65;;;1.20;;
1154;SDS011;566;48.414;9.118;2022-10-16T04:33:42;5.63;;;1.25;;
1154;SDS011;566;48.414;9.118;2022-10-16T04:36:08;4.90;;;1.30;;
1154;SDS011;566;48.414;9.118;2022-10-16T04:38:34;4.78;;;1.45;;
1154;SDS011;566;48.414;9.118;2022-10-16T04:40:59;6.03;;;1.58;;
1154;SDS011;566;48.414;9.118;2022-10-16T04:43:28;2.55;;;1.05;;
1154;SDS011;566;48.414;9.118;2022-10-16T04:45:54;4.20;;;1.15;;
1154;SDS011;566;48.414;9.118;2022-10-16T04:48:21;2.75;;;1.23;;
1154;SDS011;566;48.414;9.118;2022-10-16T04:50:47;2.50;;;1.08;;
1154;SDS011;566;48.414;9.118;2022-10-16T04:53:13;7.82;;;1.77;;
1154;SDS011;566;48.414;9.118;2022-10-16T04:55:39;3.15;;;1.20;;
1154;SDS011;566;48.414;9.118;2022-10-16T04:58:06;4.82;;;1.27;;
1154;SDS011;566;48.414;9.118;2022-10-16T05:00:31;3.10;;;1.02;;
1154;SDS011;566;48.414;9.118;2022-10-16T05:02:58;4.25;;;1.20;;
1154;SDS011;566;48.414;9.118;2022-10-16T05:05:26;4.45;;;1.13;;
1154;SDS011;566;48.414;9.118;2022-10-16T05:07:52;5.40;;;1.27;;
1154;SDS011;566;48.414;9.118;2022-10-16T05:10:18;2.75;;;1.20;;
1154;SDS011;566;48.414;9.118;2022-10-16T05:12:44;5.47;;;1.00;;
1154;SDS011;566;48.414;9.118;2022-10-16T05:15:10;7.28;;;1.30;;
1154;SDS011;566;48.414;9.118;2022-10-16T05:17:39;2.42;;;1.00;;
1154;SDS011;566;48.414;9.118;2022-10-16T05:20:05;1.85;;;1.00;;
1154;SDS011;566;48.414;9.118;2022-10-16T05:22:32;4.53;;;1.15;;
1154;SDS011;566;48.414;9.118;2022-10-16T05:24:58;4.75;;;1.55;;
1154;SDS011;566;48.414;9.118;2022-10-16T05:27:23;2.83;;;1.10;;
1154;SDS011;566;48.414;9.118;2022-10-16T05:29:49;4.50;;;1.60;;
1154;SDS011;566;48.414;9.118;2022-10-16T05:32:17;4.40;;;1.40;;
1154;SDS011;566;48.414;9.118;2022-10-16T05:34:44;4.65;;;1.50;;
1154;SDS011;566;48.414;9.118;2022-10-16T05:37:10;4.80;;;1.20;;
1154;SDS011;566;48.414;9.118;2022-10-16T05:39:37;4.32;;;1.50;;
1154;SDS011;566;48.414;9.118;2022-10-16T05:42:04;2.75;;;1.15;;
1154;SDS011;566;48.414;9.118;2022-10-16T05:44:30;4.90;;;1.27;;
1154;SDS011;566;48.414;9.118;2022-10-16T05:46:56;3.38;;;1.30;;
1154;SDS011;566;48.414;9.118;2022-10-16T05:49:21;5.70;;;1.35;;
1154;SDS011;566;48.414;9.118;2022-10-16T05:51:47;5.85;;;1.48;;
1154;SDS011;566;48.414;9.118;2022-10-16T05:54:13;2.65;;;1.13;;
1154;SDS011;566;48.414;9.118;2022-10-16T05:56:38;2.95;;;1.23;;
1154;SDS011;566;48.414;9.118;2022-10-16T05:59:04;5.15;;;1.20;;
1154;SDS011;566;48.414;9.118;2022-10-16T06:01:30;5.43;;;1.30;;
1154;SDS011;566;48.414;9.118;2022-10-16T06:03:56;4.25;;;1.27;;
1154;SDS011;566;48.414;9.118;2022-10-16T06:06:22;9.85;;;2.38;;
1154;SDS011;566;48.414;9.118;2022-10-16T06:08:51;5.00;;;1.15;;
1154;SDS011;566;48.414;9.118;2022-10-16T06:11:19;2.97;;;1.40;;
1154;SDS011;566;48.414;9.118;2022-10-16T06:13:50;6.50;;;1.50;;
1154;SDS011;566;48.414;9.118;2022-10-16T06:16:16;6.60;;;1.80;;
1154;SDS011;566;48.414;9.118;2022-10-16T06:18:42;2.33;;;1.25;;
1154;SDS011;566;48.414;9.118;2022-10-16T06:21:08;4.70;;;1.80;;
1154;SDS011;566;48.414;9.118;2022-10-16T06:23:46;4.38;;;1.73;;
1154;SDS011;566;48.414;9.118;2022-10-16T06:26:13;7.88;;;2.15;;
1154;SDS011;566;48.414;9.118;2022-10-16T06:28:41;17.65;;;5.30;;
1154;SDS011;566;48.414;9.118;2022-10-16T06:31:11;7.68;;;2.90;;
1154;SDS011;566;48.414;9.118;2022-10-16T06:33:37;6.78;;;2.25;;
1154;SDS011;566;48.414;9.118;2022-10-16T06:36:08;5.13;;;2.30;;
1154;SDS011;566;48.414;9.118;2022-10-16T06:38:35;5.63;;;2.60;;
1154;SDS011;566;48.414;9.118;2022-10-16T06:41:02;7.05;;;2.40;;
1154;SDS011;566;48.414;9.118;2022-10-16T06:43:29;10.00;;;2.58;;
1154;SDS011;566;48.414;9.118;2022-10-16T06:46:00;6.45;;;1.60;;
1154;SDS011;566;48.414;9.118;2022-10-16T06:48:26;3.78;;;1.60;;
1154;SDS011;566;48.414;9.118;2022-10-16T06:50:56;4.15;;;1.20;;
1154;SDS011;566;48.414;9.118;2022-10-16T06:53:27;4.10;;;1.30;;
1154;SDS011;566;48.414;9.118;2022-10-16T06:55:55;8.02;;;1.60;;
1154;SDS011;566;48.414;9.118;2022-10-16T06:58:21;4.55;;;1.10;;
1154;SDS011;566;48.414;9.118;2022-10-16T07:00:47;2.83;;;1.40;;
1154;SDS011;566;48.414;9.118;2022-10-16T07:03:13;3.33;;;1.50;;
1154;SDS011;566;48.414;9.118;2022-10-16T07:05:40;2.97;;;1.45;;
1154;SDS011;566;48.414;9.118;2022-10-16T07:08:06;5.30;;;1.20;;
1154;SDS011;566;48.414;9.118;2022-10-16T07:10:32;3.38;;;1.00;;
1154;SDS011;566;48.414;9.118;2022-10-16T07:12:58;3.33;;;1.20;;
1154;SDS011;566;48.414;9.118;2022-10-16T07:15:24;6.47;;;1.45;;
1154;SDS011;566;48.414;9.118;2022-10-16T07:17:50;3.45;;;1.10;;
1154;SDS011;566;48.414;9.118;2022-10-16T07:20:16;2.40;;;1.20;;
1154;SDS011;566;48.414;9.118;2022-10-16T07:22:44;6.20;;;1.30;;
1154;SDS011;566;48.414;9.118;2022-10-16T07:25:13;4.82;;;1.30;;
1154;SDS011;566;48.414;9.118;2022-10-16T07:27:38;3.00;;;1.13;;
1154;SDS011;566;48.414;9.118;2022-10-16T07:30:04;6.55;;;1.45;;
1154;SDS011;566;48.414;9.118;2022-10-16T07:32:33;3.10;;;1.38;;
1154;SDS011;566;48.414;9.118;2022-10-16T07:34:59;3.47;;;1.27;;
1154;SDS011;566;48.414;9.118;2022-10-16T07:37:24;2.63;;;1.10;;
1154;SDS011;566;48.414;9.118;2022-10-16T07:39:50;3.60;;;1.05;;
1154;SDS011;566;48.414;9.118;2022-10-16T07:42:16;4.03;;;1.10;;
1154;SDS011;566;48.414;9.118;2022-10-16T07:44:42;2.70;;;1.10;;
1154;SDS011;566;48.414;9.118;2022-10-16T07:47:10;3.40;;;0.98;;
1154;SDS011;566;48.414;9.118;2022-10-16T07:49:36;7.00;;;1.02;;
1154;SDS011;566;48.414;9.118;2022-10-16T07:52:01;4.95;;;1.20;;
1154;SDS011;566;48.414;9.118;2022-10-16T07:54:27;5.22;;;1.10;;
1154;SDS011;566;48.414;9.118;2022-10-16T07:56:53;2.38;;;1.10;;
1154;SDS011;566;48.414;9.118;2022-10-16T07:59:19;5.18;;;1.10;;
1154;SDS011;566;48.414;9.118;2022-10-16T08:01:45;2.58;;;1.20;;
1154;SDS011;566;48.414;9.118;2022-10-16T08:04:10;3.80;;;1.00;;
1154;SDS011;566;48.414;9.118;2022-10-16T08:06:37;4.88;;;1.20;;
1154;SDS011;566;48.414;9.118;2022-10-16T08:09:04;4.38;;;1.00;;
1154;SDS011;566;48.414;9.118;2022-10-16T08:11:30;5.65;;;1.20;;
1154;SDS011;566;48.414;9.118;2022-10-16T08:13:56;3.15;;;1.08;;
1154;SDS011;566;48.414;9.118;2022-10-16T08:16:22;3.50;;;1.10;;
1154;SDS011;566;48.414;9.118;2022-10-16T08:18:47;3.03;;;1.08;;
1154;SDS011;566;48.414;9.118;2022-10-16T08:21:14;5.30;;;1.30;;
1154;SDS011;566;48.414;9.118;2022-10-16T08:23:41;2.00;;;1.08;;
1154;SDS011;566;48.414;9.118;2022-10-16T08:26:11;2.50;;;1.10;;
1154;SDS011;566;48.414;9.118;2022-10-16T08:28:38;3.75;;;1.05;;
1154;SDS011;566;48.414;9.118;2022-10-16T08:31:04;3.05;;;0.90;;
1154;SDS011;566;48.414;9.118;2022-10-16T08:33:33;3.60;;;0.95;;
1154;SDS011;566;48.414;9.118;2022-10-16T08:36:00;5.53;;;1.10;;
1154;SDS011;566;48.414;9.118;2022-10-16T08:38:26;7.07;;;1.92;;
1154;SDS011;566;48.414;9.118;2022-10-16T08:40:52;4.93;;;1.33;;
1154;SDS011;566;48.414;9.118;2022-10-16T08:46:15;2.63;;;0.90;;
1154;SDS011;566;48.414;9.118;2022-10-16T08:48:57;4.90;;;1.20;;
1154;SDS011;566;48.414;9.118;2022-10-16T08:51:26;2.00;;;0.93;;
1154;SDS011;566;48.414;9.118;2022-10-16T08:56:24;8.40;;;1.27;;
1154;SDS011;566;48.414;9.118;2022-10-16T08:58:51;3.45;;;1.38;;
1154;SDS011;566;48.414;9.118;2022-10-16T09:01:18;5.13;;;1.08;;
1154;SDS011;566;48.414;9.118;2022-10-16T09:18:09;4.82;;;1.13;;
1154;SDS011;566;48.414;9.118;2022-10-16T09:23:57;3.58;;;1.20;;
1154;SDS011;566;48.414;9.118;2022-10-16T09:26:25;4.70;;;1.30;;
1154;SDS011;566;48.414;9.118;2022-10-16T09:28:52;2.92;;;0.90;;
1154;SDS011;566;48.414;9.118;2022-10-16T09:31:19;4.57;;;1.00;;
1154;SDS011;566;48.414;9.118;2022-10-16T09:33:49;2.45;;;1.10;;
1154;SDS011;566;48.414;9.118;2022-10-16T09:36:18;6.28;;;1.10;;
1154;SDS011;566;48.414;9.118;2022-10-16T09:38:45;3.80;;;1.10;;
1154;SDS011;566;48.414;9.118;2022-10-16T09:41:18;3.45;;;1.00;;
1154;SDS011;566;48.414;9.118;2022-10-16T09:43:47;4.57;;;1.08;;
1154;SDS011;566;48.414;9.118;2022-10-16T09:46:22;3.05;;;0.90;;
1154;SDS011;566;48.414;9.118;2022-10-16T09:48:50;3.55;;;0.93;;
1154;SDS011;566;48.414;9.118;2022-10-16T09:51:21;2.38;;;0.93;;
1154;SDS011;566;48.414;9.118;2022-10-16T09:53:57;4.43;;;1.08;;
1154;SDS011;566;48.414;9.118;2022-10-16T09:56:33;3.55;;;0.90;;
1154;SDS011;566;48.414;9.118;2022-10-16T09:59:17;3.45;;;1.10;;
1154;SDS011;566;48.414;9.118;2022-10-16T10:01:49;4.60;;;1.45;;
1154;SDS011;566;48.414;9.118;2022-10-16T10:04:17;3.92;;;1.00;;
1154;SDS011;566;48.414;9.118;2022-10-16T10:06:53;2.65;;;1.10;;
1154;SDS011;566;48.414;9.118;2022-10-16T10:09:24;3.10;;;1.05;;
1154;SDS011;566;48.414;9.118;2022-10-16T10:12:24;1.95;;;0.90;;
1154;SDS011;566;48.414;9.118;2022-10-16T10:14:52;4.35;;;1.00;;
1154;SDS011;566;48.414;9.118;2022-10-16T10:17:23;4.10;;;1.17;;
1154;SDS011;566;48.414;9.118;2022-10-16T10:19:51;8.88;;;1.35;;
1154;SDS011;566;48.414;9.118;2022-10-16T10:27:47;2.35;;;1.00;;
1154;SDS011;566;48.414;9.118;2022-10-16T10:30:26;2.83;;;1.08;;
1154;SDS011;566;48.414;9.118;2022-10-16T10:44:04;5.88;;;1.08;;
1154;SDS011;566;48.414;9.118;2022-10-16T10:47:01;3.35;;;0.93;;
1154;SDS011;566;48.414;9.118;2022-10-16T10:49:44;4.72;;;1.13;;
1154;SDS011;566;48.414;9.118;2022-10-16T10:55:08;2.88;;;1.20;;
1154;SDS011;566;48.414;9.118;2022-10-16T11:02:48;2.53;;;1.10;;
1154;SDS011;566;48.414;9.118;2022-10-16T11:05:33;4.80;;;1.30;;
1154;SDS011;566;48.414;9.118;2022-10-16T11:08:17;3.78;;;1.00;;
1154;SDS011;566;48.414;9.118;2022-10-16T11:16:10;3.05;;;1.20;;
1154;SDS011;566;48.414;9.118;2022-10-16T11:21:20;4.03;;;1.30;;
1154;SDS011;566;48.414;9.118;2022-10-16T11:23:53;2.90;;;0.95;;
1154;SDS011;566;48.414;9.118;2022-10-16T11:26:42;3.15;;;1.20;;
1154;SDS011;566;48.414;9.118;2022-10-16T11:29:26;4.35;;;1.20;;
1154;SDS011;566;48.414;9.118;2022-10-16T11:31:58;3.60;;;1.15;;
1154;SDS011;566;48.414;9.118;2022-10-16T11:34:50;2.42;;;1.00;;
1154;SDS011;566;48.414;9.118;2022-10-16T11:37:23;4.20;;;1.10;;
1154;SDS011;566;48.414;9.118;2022-10-16T11:39:52;5.05;;;1.63;;
1154;SDS011;566;48.414;9.118;2022-10-16T11:42:27;4.57;;;1.30;;
1154;SDS011;566;48.414;9.118;2022-10-16T11:56:51;3.47;;;1.38;;
1154;SDS011;566;48.414;9.118;2022-10-16T12:04:42;4.60;;;1.40;;
1154;SDS011;566;48.414;9.118;2022-10-16T12:07:14;4.20;;;1.63;;
1154;SDS011;566;48.414;9.118;2022-10-16T12:09:46;4.90;;;1.58;;
1154;SDS011;566;48.414;9.118;2022-10-16T12:15:19;3.88;;;1.42;;
1154;SDS011;566;48.414;9.118;2022-10-16T12:17:47;3.13;;;1.20;;
1154;SDS011;566;48.414;9.118;2022-10-16T12:23:04;7.45;;;1.60;;
1154;SDS011;566;48.414;9.118;2022-10-16T12:25:44;6.15;;;1.70;;
1154;SDS011;566;48.414;9.118;2022-10-16T12:28:27;4.25;;;1.55;;
1154;SDS011;566;48.414;9.118;2022-10-16T12:30:58;4.43;;;1.30;;
1154;SDS011;566;48.414;9.118;2022-10-16T12:33:30;3.65;;;1.60;;
1154;SDS011;566;48.414;9.118;2022-10-16T12:36:03;3.33;;;1.30;;
1154;SDS011;566;48.414;9.118;2022-10-16T12:38:51;4.63;;;1.77;;
1154;SDS011;566;48.414;9.118;2022-10-16T12:41:29;4.97;;;1.48;;
1154;SDS011;566;48.414;9.118;2022-10-16T12:43:57;3.15;;;1.50;;
1154;SDS011;566;48.414;9.118;2022-10-16T12:49:47;5.32;;;1.30;;
1154;SDS011;566;48.414;9.118;2022-10-16T12:52:22;5.72;;;1.70;;
1154;SDS011;566;48.414;9.118;2022-10-16T12:55:12;5.82;;;1.45;;
1154;SDS011;566;48.414;9.118;2022-10-16T13:11:22;4.75;;;1.50;;
1154;SDS011;566;48.414;9.118;2022-10-16T13:20:02;4.75;;;1.60;;
1154;SDS011;566;48.414;9.118;2022-10-16T13:22:45;3.50;;;1.48;;
1154;SDS011;566;48.414;9.118;2022-10-16T13:27:56;4.00;;;1.60;;
1154;SDS011;566;48.414;9.118;2022-10-16T13:30:51;3.80;;;1.55;;
1154;SDS011;566;48.414;9.118;2022-10-16T13:33:35;9.23;;;1.67;;
1154;SDS011;566;48.414;9.118;2022-10-16T13:36:03;2.85;;;1.15;;
1154;SDS011;566;48.414;9.118;2022-10-16T13:38:31;5.32;;;1.48;;
1154;SDS011;566;48.414;9.118;2022-10-16T13:41:03;5.97;;;1.50;;
1154;SDS011;566;48.414;9.118;2022-10-16T13:43:35;4.30;;;1.70;;
1154;SDS011;566;48.414;9.118;2022-10-16T13:46:11;3.15;;;1.48;;
1154;SDS011;566;48.414;9.118;2022-10-16T13:48:38;3.25;;;1.55;;
1154;SDS011;566;48.414;9.118;2022-10-16T13:51:11;4.40;;;1.30;;
1154;SDS011;566;48.414;9.118;2022-10-16T13:53:39;3.70;;;1.45;;
1154;SDS011;566;48.414;9.118;2022-10-16T13:56:11;3.20;;;1.40;;
1154;SDS011;566;48.414;9.118;2022-10-16T13:58:42;2.92;;;1.50;;
1154;SDS011;566;48.414;9.118;2022-10-16T14:01:22;3.58;;;1.17;;
1154;SDS011;566;48.414;9.118;2022-10-16T14:04:07;5.28;;;1.42;;
1154;SDS011;566;48.414;9.118;2022-10-16T14:06:35;4.30;;;1.98;;
1154;SDS011;566;48.414;9.118;2022-10-16T14:09:07;5.03;;;1.33;;
1154;SDS011;566;48.414;9.118;2022-10-16T14:11:54;9.50;;;1.95;;
1154;SDS011;566;48.414;9.118;2022-10-16T14:14:23;4.65;;;1.45;;
1154;SDS011;566;48.414;9.118;2022-10-16T14:16:51;4.90;;;1.45;;
1154;SDS011;566;48.414;9.118;2022-10-16T14:19:22;6.03;;;2.15;;
1154;SDS011;566;48.414;9.118;2022-10-16T14:21:52;6.25;;;1.50;;
1154;SDS011;566;48.414;9.118;2022-10-16T14:26:58;4.65;;;1.73;;
1154;SDS011;566;48.414;9.118;2022-10-16T14:29:25;5.18;;;1.50;;
1154;SDS011;566;48.414;9.118;2022-10-16T14:37:09;5.45;;;1.60;;
1154;SDS011;566;48.414;9.118;2022-10-16T14:39:50;17.13;;;1.80;;
1154;SDS011;566;48.414;9.118;2022-10-16T14:42:18;4.78;;;1.50;;
1154;SDS011;566;48.414;9.118;2022-10-16T14:44:49;3.78;;;1.30;;
1154;SDS011;566;48.414;9.118;2022-10-16T14:47:18;4.57;;;1.63;;
1154;SDS011;566;48.414;9.118;2022-10-16T14:49:49;5.32;;;1.40;;
1154;SDS011;566;48.414;9.118;2022-10-16T14:52:24;10.95;;;2.10;;
1154;SDS011;566;48.414;9.118;2022-10-16T14:54:50;5.25;;;1.60;;
1154;SDS011;566;48.414;9.118;2022-10-16T14:57:21;6.00;;;1.52;;
1154;SDS011;566;48.414;9.118;2022-10-16T14:59:53;4.00;;;1.45;;
1154;SDS011;566;48.414;9.118;2022-10-16T15:05:10;7.28;;;1.85;;
1154;SDS011;566;48.414;9.118;2022-10-16T15:07:50;6.82;;;1.70;;
1154;SDS011;566;48.414;9.118;2022-10-16T15:10:22;24.67;;;2.33;;
1154;SDS011;566;48.414;9.118;2022-10-16T15:12:53;7.68;;;1.50;;
1154;SDS011;566;48.414;9.118;2022-10-16T15:15:28;7.03;;;1.58;;
1154;SDS011;566;48.414;9.118;2022-10-16T15:17:59;6.40;;;2.05;;
1154;SDS011;566;48.414;9.118;2022-10-16T15:20:27;4.75;;;1.40;;
1154;SDS011;566;48.414;9.118;2022-10-16T15:22:55;8.73;;;1.80;;
1154;SDS011;566;48.414;9.118;2022-10-16T15:25:35;5.25;;;1.38;;
1154;SDS011;566;48.414;9.118;2022-10-16T15:30:33;14.60;;;1.80;;
1154;SDS011;566;48.414;9.118;2022-10-16T15:33:00;6.32;;;2.10;;
1154;SDS011;566;48.414;9.118;2022-10-16T15:35:27;8.05;;;2.50;;
1154;SDS011;566;48.414;9.118;2022-10-16T15:37:53;9.80;;;1.90;;
1154;SDS011;566;48.414;9.118;2022-10-16T15:40:19;5.15;;;1.80;;
1154;SDS011;566;48.414;9.118;2022-10-16T15:42:45;5.22;;;1.40;;
1154;SDS011;566;48.414;9.118;2022-10-16T15:45:11;11.90;;;2.00;;
1154;SDS011;566;48.414;9.118;2022-10-16T15:47:40;13.98;;;2.05;;
1154;SDS011;566;48.414;9.118;2022-10-16T15:50:23;11.45;;;1.70;;
1154;SDS011;566;48.414;9.118;2022-10-16T15:52:49;5.97;;;1.90;;
1154;SDS011;566;48.414;9.118;2022-10-16T15:55:15;7.32;;;1.70;;
1154;SDS011;566;48.414;9.118;2022-10-16T15:57:43;5.90;;;2.03;;
1154;SDS011;566;48.414;9.118;2022-10-16T16:00:14;7.60;;;1.90;;
1154;SDS011;566;48.414;9.118;2022-10-16T16:02:51;6.88;;;2.03;;
1154;SDS011;566;48.414;9.118;2022-10-16T16:05:18;9.35;;;1.95;;
1154;SDS011;566;48.414;9.118;2022-10-16T16:07:44;9.68;;;1.85;;
1154;SDS011;566;48.414;9.118;2022-10-16T16:10:11;8.07;;;2.28;;
1154;SDS011;566;48.414;9.118;2022-10-16T16:12:37;9.48;;;2.45;;
1154;SDS011;566;48.414;9.118;2022-10-16T16:15:07;7.68;;;1.77;;
1154;SDS011;566;48.414;9.118;2022-10-16T16:17:34;10.68;;;2.70;;
1154;SDS011;566;48.414;9.118;2022-10-16T16:20:00;6.57;;;1.90;;
1154;SDS011;566;48.414;9.118;2022-10-16T16:22:26;6.18;;;1.80;;
1154;SDS011;566;48.414;9.118;2022-10-16T16:24:52;10.68;;;1.98;;
1154;SDS011;566;48.414;9.118;2022-10-16T16:27:18;5.78;;;1.60;;
1154;SDS011;566;48.414;9.118;2022-10-16T16:29:47;12.40;;;2.25;;
1154;SDS011;566;48.414;9.118;2022-10-16T16:32:13;10.02;;;2.25;;
1154;SDS011;566;48.414;9.118;2022-10-16T16:34:39;8.93;;;1.80;;
1154;SDS011;566;48.414;9.118;2022-10-16T16:37:04;11.98;;;2.00;;
1154;SDS011;566;48.414;9.118;2022-10-16T16:39:30;8.77;;;2.15;;
1154;SDS011;566;48.414;9.118;2022-10-16T16:41:56;6.97;;;1.95;;
1154;SDS011;566;48.414;9.118;2022-10-16T16:44:27;7.88;;;1.90;;
1154;SDS011;566;48.414;9.118;2022-10-16T16:46:53;7.50;;;1.90;;
1154;SDS011;566;48.414;9.118;2022-10-16T16:49:19;9.52;;;1.80;;
1154;SDS011;566;48.414;9.118;2022-10-16T16:51:45;6.55;;;1.90;;
1154;SDS011;566;48.414;9.118;2022-10-16T16:54:11;9.73;;;2.53;;
1154;SDS011;566;48.414;9.118;2022-10-16T16:56:38;6.95;;;1.92;;
1154;SDS011;566;48.414;9.118;2022-10-16T16:59:03;6.85;;;1.67;;
1154;SDS011;566;48.414;9.118;2022-10-16T17:01:32;4.32;;;1.70;;
1154;SDS011;566;48.414;9.118;2022-10-16T17:03:58;6.43;;;1.60;;
1154;SDS011;566;48.414;9.118;2022-10-16T17:06:26;2.92;;;1.55;;
1154;SDS011;566;48.414;9.118;2022-10-16T17:08:54;7.88;;;2.10;;
1154;SDS011;566;48.414;9.118;2022-10-16T17:11:22;4.93;;;2.00;;
1154;SDS011;566;48.414;9.118;2022-10-16T17:13:49;5.32;;;1.80;;
1154;SDS011;566;48.414;9.118;2022-10-16T17:16:17;7.13;;;1.65;;
1154;SDS011;566;48.414;9.118;2022-10-16T17:18:43;8.85;;;1.80;;
1154;SDS011;566;48.414;9.118;2022-10-16T17:21:09;5.15;;;2.25;;
1154;SDS011;566;48.414;9.118;2022-10-16T17:23:35;9.73;;;2.00;;
1154;SDS011;566;48.414;9.118;2022-10-16T17:26:12;8.63;;;1.67;;
1154;SDS011;566;48.414;9.118;2022-10-16T17:28:39;9.10;;;1.92;;
1154;SDS011;566;48.414;9.118;2022-10-16T17:31:07;6.57;;;1.50;;
1154;SDS011;566;48.414;9.118;2022-10-16T17:33:38;5.68;;;1.88;;
1154;SDS011;566;48.414;9.118;2022-10-16T17:36:04;3.80;;;1.98;;
1154;SDS011;566;48.414;9.118;2022-10-16T17:38:30;4.53;;;2.38;;
1154;SDS011;566;48.414;9.118;2022-10-16T17:41:09;5.93;;;2.53;;
1154;SDS011;566;48.414;9.118;2022-10-16T17:43:36;12.65;;;2.78;;
1154;SDS011;566;48.414;9.118;2022-10-16T17:46:03;6.13;;;1.90;;
1154;SDS011;566;48.414;9.118;2022-10-16T17:48:30;5.20;;;1.70;;
1154;SDS011;566;48.414;9.118;2022-10-16T17:50:56;7.60;;;2.13;;
1154;SDS011;566;48.414;9.118;2022-10-16T17:53:30;9.00;;;2.08;;
1154;SDS011;566;48.414;9.118;2022-10-16T17:55:56;4.95;;;1.83;;
1154;SDS011;566;48.414;9.118;2022-10-16T17:58:25;4.95;;;1.77;;
1154;SDS011;566;48.414;9.118;2022-10-16T18:00:54;5.65;;;1.88;;
1154;SDS011;566;48.414;9.118;2022-10-16T18:03:21;11.88;;;3.15;;